TimeCST,TemperatureF,Dew PointF,Humidity,Sea Level PressureIn,VisibilityMPH,Wind Direction,Wind SpeedMPH,Gust SpeedMPH,PrecipitationIn,Events,Conditions,WindDirDegrees,DateUTC
12:53 AM,55.9,39.0,53,29.67,10.0,SW,17.3,-,N/A,,Clear,220,2012-11-10 06:53:00
1:53 AM,54.0,37.9,55,29.68,10.0,SSW,17.3,-,N/A,,Clear,200,2012-11-10 07:53:00
2:53 AM,48.0,37.0,66,29.68,10.0,SW,10.4,-,N/A,,Clear,220,2012-11-10 08:53:00
3:53 AM,45.0,36.0,71,29.67,10.0,South,8.1,-,N/A,,Clear,190,2012-11-10 09:53:00
4:53 AM,50.0,41.0,71,29.63,10.0,South,13.8,-,N/A,,Clear,180,2012-11-10 10:53:00
5:53 AM,50.0,44.1,80,29.63,10.0,South,16.1,-,N/A,,Clear,190,2012-11-10 11:53:00
6:53 AM,50.0,46.0,86,29.63,10.0,SSW,17.3,-,N/A,,Clear,200,2012-11-10 12:53:00
7:53 AM,48.0,45.0,89,29.64,7.0,South,11.5,-,N/A,,Clear,190,2012-11-10 13:53:00
8:53 AM,55.0,48.9,80,29.63,10.0,South,13.8,-,N/A,,Clear,180,2012-11-10 14:53:00
9:53 AM,63.0,46.0,54,29.60,10.0,South,20.7,27.6,N/A,,Clear,190,2012-11-10 15:53:00
10:53 AM,71.1,42.1,35,29.55,9.0,SSW,39.1,43.7,N/A,,Clear,200,2012-11-10 16:53:00
11:05 AM,71.6,41.0,33,29.69,3.0,SSW,36.8,50.6,N/A,,Haze,210,2012-11-10 17:05:00
11:42 AM,73.4,35.6,25,29.67,2.5,SW,38.0,52.9,N/A,,Haze,220,2012-11-10 17:42:00
11:47 AM,73.4,35.6,25,29.67,1.8,SSW,41.4,52.9,N/A,,Haze,210,2012-11-10 17:47:00
11:53 AM,72.0,34.0,25,29.53,1.0,SSW,43.7,54.1,N/A,,Haze,210,2012-11-10 17:53:00
12:12 PM,73.4,35.6,25,29.65,1.5,SSW,38.0,50.6,N/A,,Haze,210,2012-11-10 18:12:00
12:28 PM,73.4,30.2,20,29.65,1.2,SW,40.3,62.1,N/A,,Haze,220,2012-11-10 18:28:00
12:37 PM,75.2,30.2,19,29.64,1.8,SW,41.4,57.5,N/A,,Haze,220,2012-11-10 18:37:00
12:44 PM,75.2,32.0,21,29.63,0.8,SSW,43.7,57.5,N/A,,Haze,210,2012-11-10 18:44:00
12:53 PM,75.0,32.0,21,29.49,0.8,SSW,46.0,58.7,N/A,,Haze,210,2012-11-10 18:53:00
1:03 PM,73.4,32.0,22,29.62,1.2,SW,38.0,51.8,N/A,,Haze,220,2012-11-10 19:03:00
1:18 PM,75.2,30.2,19,29.62,0.5,SW,43.7,63.3,N/A,,Haze,220,2012-11-10 19:18:00
1:23 PM,73.4,30.2,20,29.62,1.0,SW,40.3,57.5,N/A,,Haze,220,2012-11-10 19:23:00
1:30 PM,75.2,32.0,21,29.61,3.0,SW,39.1,54.1,N/A,,Haze,230,2012-11-10 19:30:00
1:37 PM,73.4,32.0,22,29.62,2.5,SW,40.3,54.1,N/A,,Haze,220,2012-11-10 19:37:00
1:48 PM,71.6,33.8,25,29.61,1.5,SW,38.0,61.0,N/A,,Haze,220,2012-11-10 19:48:00
1:53 PM,72.0,34.0,25,29.48,2.5,SW,35.7,57.5,N/A,,Haze,220,2012-11-10 19:53:00
2:00 PM,69.8,35.6,28,29.61,3.0,SSW,32.2,46.0,N/A,,Haze,210,2012-11-10 20:00:00
2:08 PM,71.6,35.6,27,29.61,2.0,SSW,38.0,50.6,N/A,,Haze,210,2012-11-10 20:08:00
2:21 PM,73.4,33.8,23,29.60,6.0,SSW,34.5,46.0,N/A,,Haze,210,2012-11-10 20:21:00
2:37 PM,75.2,30.2,19,29.59,2.5,SW,38.0,51.8,N/A,,Haze,220,2012-11-10 20:37:00
2:46 PM,73.4,30.2,20,29.60,5.0,SW,34.5,50.6,N/A,,Haze,220,2012-11-10 20:46:00
2:53 PM,72.0,32.0,23,29.48,6.0,WSW,36.8,43.7,N/A,,Haze,240,2012-11-10 20:53:00
3:32 PM,71.6,30.2,22,29.60,5.0,SW,40.3,51.8,N/A,,Haze,230,2012-11-10 21:32:00
3:49 PM,71.6,30.2,22,29.61,1.2,SSW,42.6,59.8,N/A,,Haze,210,2012-11-10 21:49:00
3:53 PM,70.0,30.0,23,29.51,0.5,North,-9999.0,-,N/A,,Haze,0,2012-11-10 21:53:00
4:00 PM,69.8,30.2,23,29.62,0.2,SSW,39.1,52.9,N/A,,Haze,210,2012-11-10 22:00:00
4:07 PM,69.8,30.2,23,29.62,1.0,WSW,27.6,55.2,N/A,,Haze,240,2012-11-10 22:07:00
4:12 PM,68.0,32.0,26,29.63,4.0,WSW,29.9,41.4,N/A,,Haze,240,2012-11-10 22:12:00
4:24 PM,66.2,32.0,28,29.64,6.0,SW,36.8,43.7,N/A,,Haze,220,2012-11-10 22:24:00
4:53 PM,66.9,33.1,28,29.53,10.0,WSW,28.8,36.8,N/A,,Overcast,240,2012-11-10 22:53:00
5:53 PM,60.1,32.0,35,29.58,10.0,WSW,17.3,-,N/A,,Clear,250,2012-11-10 23:53:00
6:53 PM,55.9,28.0,34,29.63,10.0,SW,18.4,-,N/A,,Partly Cloudy,230,2012-11-11 00:53:00
7:53 PM,51.1,27.0,39,29.67,10.0,WSW,11.5,-,N/A,,Clear,240,2012-11-11 01:53:00
8:53 PM,48.9,21.9,35,29.68,10.0,West,10.4,-,N/A,,Clear,260,2012-11-11 02:53:00
9:53 PM,44.6,19.4,37,29.77,10.0,WNW,11.5,-,N/A,,Clear,290,2012-11-11 03:53:00
10:53 PM,42.1,17.1,37,29.67,10.0,WNW,16.1,-,N/A,,Clear,290,2012-11-11 04:53:00
11:53 PM,42.1,15.1,34,29.69,10.0,West,5.8,-,N/A,,Clear,280,2012-11-11 05:53:00